createdAt,value
2019-01-11T00:00:26.286Z,2.91
2019-01-11T00:03:28.316Z,2.90
2019-01-11T00:06:30.270Z,2.97
2019-01-11T00:09:32.193Z,2.95
2019-01-11T00:12:34.178Z,2.92
2019-01-11T00:15:36.226Z,2.92
2019-01-11T00:18:38.212Z,2.89
2019-01-11T00:21:41.636Z,2.88
2019-01-11T00:24:43.646Z,2.95
2019-01-11T00:27:45.537Z,2.97
2019-01-11T00:30:47.509Z,3.01
2019-01-11T00:33:49.409Z,3.01
2019-01-11T00:36:51.343Z,2.85
2019-01-11T00:39:53.286Z,2.75
2019-01-11T00:42:55.220Z,2.80
2019-01-11T00:45:57.216Z,2.70
2019-01-11T00:48:59.147Z,2.73
2019-01-11T00:52:01.346Z,2.69
2019-01-11T00:55:06.433Z,2.72
2019-01-11T00:58:08.326Z,2.63
2019-01-11T01:01:10.339Z,2.61
2019-01-11T01:04:12.786Z,2.68
2019-01-11T01:07:15.347Z,2.72
2019-01-11T01:10:19.204Z,2.71
2019-01-11T01:13:21.121Z,2.72
2019-01-11T01:16:23.212Z,2.71
2019-01-11T01:19:25.178Z,2.81
2019-01-11T01:22:27.072Z,2.94
2019-01-11T01:25:29.151Z,2.97
2019-01-11T01:28:31.083Z,3.08
2019-01-11T01:31:33.024Z,3.09
2019-01-11T01:34:34.902Z,3.09
2019-01-11T01:37:36.972Z,3.05
2019-01-11T01:40:38.905Z,3.04
2019-01-11T01:43:40.943Z,3.03
2019-01-11T01:46:42.861Z,2.99
2019-01-11T01:49:44.794Z,3.04
2019-01-11T01:52:46.734Z,3.04
2019-01-11T01:55:49.045Z,3.00
2019-01-11T01:58:51.054Z,2.97
2019-01-11T02:01:52.983Z,2.93
2019-01-11T02:04:55.011Z,2.93
2019-01-11T02:07:57.002Z,2.97
2019-01-11T02:10:58.933Z,2.97
2019-01-11T02:14:00.927Z,2.91
2019-01-11T02:17:03.467Z,2.99
2019-01-11T02:20:11.474Z,2.98
2019-01-11T02:23:13.350Z,2.97
2019-01-11T02:26:15.323Z,2.90
2019-01-11T02:29:17.210Z,2.88
2019-01-11T02:32:19.208Z,2.84
2019-01-11T02:35:21.056Z,2.86
2019-01-11T02:38:22.956Z,2.86
2019-01-11T02:41:24.879Z,2.87
2019-01-11T02:44:26.914Z,2.81
2019-01-11T02:47:28.907Z,2.81
2019-01-11T02:50:30.909Z,2.83
2019-01-11T02:53:33.310Z,2.87
2019-01-11T02:56:35.301Z,2.85
2019-01-11T02:59:37.288Z,2.89
2019-01-11T03:02:39.353Z,2.90
2019-01-11T03:05:41.505Z,2.88
2019-01-11T03:08:43.512Z,2.80
2019-01-11T03:11:45.511Z,2.81
2019-01-11T03:14:49.096Z,2.80
2019-01-11T03:17:51.150Z,2.75
2019-01-11T03:20:53.113Z,2.74
2019-01-11T03:23:55.011Z,2.74
2019-01-11T03:26:56.990Z,2.70
2019-01-11T03:29:58.948Z,2.72
2019-01-11T03:33:00.932Z,2.74
2019-01-11T03:36:03.584Z,2.76
2019-01-11T03:39:05.786Z,2.80
2019-01-11T03:42:09.495Z,2.86
2019-01-11T03:45:14.467Z,2.87
2019-01-11T03:48:16.451Z,2.85
2019-01-11T03:51:18.427Z,2.87
2019-01-11T03:54:20.392Z,2.84
2019-01-11T03:57:22.501Z,2.88
2019-01-11T04:00:24.386Z,2.89
2019-01-11T04:03:26.340Z,2.85
2019-01-11T04:06:28.882Z,2.80
2019-01-11T04:09:30.857Z,2.80
2019-01-11T04:12:32.828Z,2.72
2019-01-11T04:15:35.749Z,2.68
2019-01-11T04:18:40.287Z,2.66
2019-01-11T04:21:44.483Z,2.60
2019-01-11T04:24:48.326Z,2.56
2019-01-11T04:27:51.076Z,2.56
2019-01-11T04:30:53.021Z,2.56
2019-01-11T04:33:55.034Z,2.50
2019-01-11T04:36:57.029Z,2.50
2019-01-11T04:39:59.009Z,2.48
2019-01-11T04:43:00.927Z,2.48
2019-01-11T04:46:03.012Z,2.41
2019-01-11T04:49:05.036Z,2.40
2019-01-11T04:52:07.024Z,2.34
2019-01-11T04:55:09.169Z,2.28
2019-01-11T04:58:11.167Z,2.27
2019-01-11T05:01:13.128Z,2.23
2019-01-11T05:04:15.469Z,2.25
2019-01-11T05:07:18.815Z,2.25
2019-01-11T05:10:20.787Z,2.25
2019-01-11T05:13:30.296Z,2.29
2019-01-11T05:16:39.310Z,2.31
2019-01-11T05:19:36.305Z,2.25
2019-01-11T05:22:38.296Z,2.20
2019-01-11T05:25:40.230Z,2.21
2019-01-11T05:28:42.188Z,2.17
2019-01-11T05:31:45.953Z,2.18
2019-01-11T05:34:47.940Z,2.14
2019-01-11T05:37:49.850Z,2.05
2019-01-11T05:40:51.839Z,2.07
2019-01-11T05:43:53.747Z,2.09
2019-01-11T05:46:55.703Z,2.09
2019-01-11T05:49:57.672Z,2.10
2019-01-11T05:52:59.640Z,2.06
2019-01-11T05:56:01.925Z,2.02
2019-01-11T05:59:04.641Z,1.96
2019-01-11T06:02:06.578Z,1.89
2019-01-11T06:05:10.400Z,1.87
2019-01-11T06:08:19.752Z,1.93
2019-01-11T06:11:21.770Z,1.94
2019-01-11T06:14:23.677Z,1.89
2019-01-11T06:17:25.588Z,1.85
2019-01-11T06:20:30.357Z,1.80
2019-01-11T06:23:31.618Z,1.76
2019-01-11T06:26:34.848Z,1.68
2019-01-11T06:29:36.816Z,1.53
2019-01-11T06:32:38.759Z,1.32
2019-01-11T06:35:41.568Z,1.20
2019-01-11T06:38:43.539Z,1.16
2019-01-11T06:41:47.385Z,1.12
2019-01-11T06:44:49.345Z,1.00
2019-01-11T06:47:51.330Z,0.92
2019-01-11T06:50:53.362Z,0.83
2019-01-11T06:53:55.413Z,0.76
2019-01-11T06:56:57.300Z,0.66
2019-01-11T06:59:59.304Z,0.61
2019-01-11T07:03:01.266Z,0.58
2019-01-11T07:06:03.291Z,0.55
2019-01-11T07:09:06.531Z,0.52
2019-01-11T07:12:08.438Z,0.49
2019-01-11T07:15:12.530Z,0.54
2019-01-11T07:18:14.890Z,0.60
2019-01-11T07:21:16.983Z,0.70
2019-01-11T07:24:18.956Z,0.73
2019-01-11T07:27:20.869Z,0.83
2019-01-11T07:30:25.104Z,1.03
2019-01-11T07:33:27.155Z,1.23
2019-01-11T07:36:29.753Z,1.36
2019-01-11T07:39:31.664Z,1.52
2019-01-11T07:42:33.665Z,1.56
2019-01-11T07:45:35.614Z,1.58
2019-01-11T07:48:37.594Z,1.61
2019-01-11T07:51:39.660Z,1.60
2019-01-11T07:54:41.649Z,1.65
2019-01-11T07:57:43.643Z,1.83
2019-01-11T08:00:45.608Z,2.16
2019-01-11T08:03:47.537Z,2.47
2019-01-11T08:06:50.594Z,2.71
2019-01-11T08:09:53.183Z,2.73
2019-01-11T08:12:55.247Z,2.40
2019-01-11T08:15:57.178Z,2.13
2019-01-11T08:18:59.204Z,1.77
2019-01-11T08:22:01.271Z,1.56
2019-01-11T08:25:05.503Z,1.44
2019-01-11T08:28:07.551Z,1.65
2019-01-11T08:31:09.559Z,2.61
2019-01-11T08:34:11.510Z,4.15
2019-01-11T08:37:14.788Z,5.14
2019-01-11T08:40:16.747Z,5.73
2019-01-11T08:43:18.714Z,5.34
2019-01-11T08:46:20.686Z,4.89
2019-01-11T08:49:22.673Z,4.27
2019-01-11T08:52:24.659Z,3.77
2019-01-11T08:55:28.496Z,3.47
2019-01-11T08:58:30.494Z,3.26
2019-01-11T09:01:32.454Z,2.93
2019-01-11T09:04:34.393Z,2.91
2019-01-11T09:07:36.388Z,2.79
2019-01-11T09:10:38.401Z,2.71
2019-01-11T09:13:40.423Z,2.63
2019-01-11T09:16:43.470Z,2.60
2019-01-11T09:19:45.424Z,3.11
2019-01-11T09:22:47.524Z,5.48
2019-01-11T09:25:49.562Z,6.48
2019-01-11T09:28:51.558Z,6.55
2019-01-11T09:31:53.568Z,5.87
2019-01-11T09:34:55.517Z,4.97
2019-01-11T09:37:58.061Z,4.24
2019-01-11T09:41:00.004Z,3.75
2019-01-11T09:44:01.993Z,3.30
2019-01-11T09:47:03.902Z,3.14
2019-01-11T09:50:08.188Z,3.08
2019-01-11T09:53:10.204Z,2.93
2019-01-11T09:56:12.202Z,2.82
2019-01-11T09:59:14.125Z,2.71
2019-01-11T10:02:17.914Z,2.62
2019-01-11T10:05:19.825Z,2.50
2019-01-11T10:08:21.789Z,2.40
2019-01-11T10:11:24.081Z,2.37
2019-01-11T10:14:26.113Z,2.44
2019-01-11T10:17:28.124Z,2.54
2019-01-11T10:20:30.597Z,2.80
2019-01-11T10:23:32.706Z,2.90
2019-01-11T10:26:34.726Z,2.97
2019-01-11T10:29:36.674Z,3.19
2019-01-11T10:32:38.697Z,3.27
2019-01-11T10:35:40.691Z,3.37
2019-01-11T10:38:42.698Z,3.55
2019-01-11T10:41:44.641Z,3.54
2019-01-11T10:44:46.595Z,3.55
2019-01-11T10:47:51.558Z,3.40
2019-01-11T10:50:53.535Z,3.20
2019-01-11T10:53:56.589Z,3.06
2019-01-11T10:56:58.594Z,2.88
2019-01-11T11:00:00.762Z,2.77
2019-01-11T11:03:02.924Z,2.62
2019-01-11T11:06:04.920Z,2.56
2019-01-11T11:09:06.858Z,2.69
2019-01-11T11:12:08.961Z,2.88
2019-01-11T11:15:13.552Z,3.09
2019-01-11T11:18:15.442Z,3.22
2019-01-11T11:21:18.026Z,3.29
2019-01-11T11:24:20.120Z,3.35
2019-01-11T11:27:22.102Z,3.44
2019-01-11T11:30:24.961Z,3.46
2019-01-11T11:33:26.911Z,3.49
2019-01-11T11:36:28.879Z,3.50
2019-01-11T11:39:30.980Z,3.39
2019-01-11T11:42:32.878Z,3.27
2019-01-11T11:45:34.853Z,3.28
2019-01-11T11:48:36.789Z,3.20
2019-01-11T11:51:41.491Z,3.08
2019-01-11T11:54:42.658Z,3.06
2019-01-11T11:57:44.636Z,3.04
2019-01-11T12:00:46.669Z,3.08
2019-01-11T12:03:48.672Z,3.18
2019-01-11T12:06:50.637Z,3.28
2019-01-11T12:09:52.582Z,3.30
2019-01-11T12:12:55.075Z,3.17
2019-01-11T12:15:57.109Z,3.09
2019-01-11T12:18:59.072Z,3.04
2019-01-11T12:22:01.749Z,2.99
2019-01-11T12:25:06.063Z,2.94
2019-01-11T12:28:08.071Z,3.02
2019-01-11T12:31:10.032Z,3.07
2019-01-11T12:34:12.094Z,3.14
2019-01-11T12:37:13.992Z,3.07
2019-01-11T12:40:16.556Z,3.04
2019-01-11T12:43:18.514Z,3.07
2019-01-11T12:46:20.569Z,2.93
2019-01-11T12:49:22.507Z,2.84
2019-01-11T12:52:24.506Z,2.76
2019-01-11T12:55:26.545Z,2.73
2019-01-11T12:58:28.511Z,2.65
2019-01-11T13:01:30.438Z,2.66
2019-01-11T13:04:32.370Z,2.76
2019-01-11T13:07:35.273Z,2.62
2019-01-11T13:10:37.211Z,2.54
2019-01-11T13:13:39.204Z,2.40
2019-01-11T13:16:41.245Z,2.52
2019-01-11T13:19:43.251Z,2.54
2019-01-11T13:22:45.422Z,2.53
2019-01-11T13:25:47.514Z,2.64
2019-01-11T13:28:49.520Z,2.69
2019-01-11T13:31:51.474Z,2.70
2019-01-11T13:34:53.587Z,2.72
2019-01-11T13:37:55.569Z,2.74
2019-01-11T13:40:57.564Z,2.73
2019-01-11T13:43:59.486Z,2.73
2019-01-11T13:47:01.466Z,2.81
2019-01-11T13:50:06.958Z,2.81
2019-01-11T13:53:09.014Z,2.78
2019-01-11T13:56:11.081Z,2.80
2019-01-11T13:59:13.214Z,2.79
2019-01-11T14:02:15.315Z,2.75
2019-01-11T14:05:17.360Z,2.79
2019-01-11T14:08:19.396Z,2.80
2019-01-11T14:11:21.382Z,2.80
2019-01-11T14:14:23.309Z,2.75
2019-01-11T14:17:25.318Z,2.71
2019-01-11T14:20:27.255Z,2.67
2019-01-11T14:23:29.966Z,2.64
2019-01-11T14:26:32.017Z,2.60
2019-01-11T14:29:34.203Z,2.44
2019-01-11T14:32:36.256Z,2.38
2019-01-11T14:35:40.117Z,2.30
2019-01-11T14:38:42.136Z,2.22
2019-01-11T14:41:44.722Z,2.20
2019-01-11T14:44:46.673Z,2.23
2019-01-11T14:47:49.037Z,2.25
2019-01-11T14:50:50.962Z,2.19
2019-01-11T14:53:52.948Z,2.08
2019-01-11T14:56:54.967Z,2.10
2019-01-11T14:59:57.004Z,2.04
2019-01-11T15:02:58.950Z,2.01
2019-01-11T15:06:01.046Z,2.01
2019-01-11T15:09:05.838Z,1.97
2019-01-11T15:12:07.832Z,1.93
2019-01-11T15:15:10.540Z,1.89
2019-01-11T15:18:12.641Z,1.84
2019-01-11T15:21:14.593Z,1.85
2019-01-11T15:24:18.130Z,1.82
2019-01-11T15:27:20.361Z,1.85
2019-01-11T15:30:22.327Z,1.88
2019-01-11T15:33:24.292Z,1.78
2019-01-11T15:36:26.282Z,1.76
2019-01-11T15:39:28.359Z,1.76
2019-01-11T15:42:30.517Z,1.67
2019-01-11T15:45:32.597Z,1.60
2019-01-11T15:48:42.709Z,1.51
2019-01-11T15:51:44.671Z,1.48
2019-01-11T15:54:46.706Z,1.40
2019-01-11T15:57:48.714Z,1.33
2019-01-11T16:00:50.722Z,1.29
2019-01-11T16:03:52.873Z,1.22
2019-01-11T16:06:55.021Z,1.24
2019-01-11T16:09:58.257Z,1.26
2019-01-11T16:13:02.897Z,1.21
2019-01-11T16:16:07.920Z,1.23
2019-01-11T16:19:09.923Z,1.27
2019-01-11T16:22:11.880Z,1.33
2019-01-11T16:25:16.085Z,1.37
2019-01-11T16:28:18.195Z,1.42
2019-01-11T16:31:20.193Z,1.37
2019-01-11T16:34:22.091Z,1.38
2019-01-11T16:37:24.040Z,1.37
2019-01-11T16:40:25.942Z,1.40
2019-01-11T16:43:28.047Z,1.42
2019-01-11T16:46:29.955Z,1.44
2019-01-11T16:49:31.949Z,1.50
2019-01-11T16:52:33.833Z,1.48
2019-01-11T16:55:35.810Z,1.44
2019-01-11T16:58:37.763Z,1.42
2019-01-11T17:01:39.947Z,1.39
2019-01-11T17:04:42.011Z,1.39
2019-01-11T17:07:44.019Z,1.47
2019-01-11T17:10:45.932Z,1.51
2019-01-11T17:13:47.916Z,1.53
2019-01-11T17:16:49.852Z,1.56
2019-01-11T17:19:51.809Z,1.61
2019-01-11T17:22:53.775Z,1.60
2019-01-11T17:25:55.982Z,1.58
2019-01-11T17:28:58.003Z,1.63
2019-01-11T17:32:00.015Z,1.67
2019-01-11T17:35:01.907Z,1.62
2019-01-11T17:38:03.994Z,1.65
2019-01-11T17:41:06.149Z,1.71
2019-01-11T17:44:08.084Z,1.75
2019-01-11T17:47:10.027Z,1.71
2019-01-11T17:50:14.389Z,1.68
2019-01-11T17:53:16.275Z,1.65
2019-01-11T17:56:18.270Z,1.67
2019-01-11T17:59:20.268Z,1.69
2019-01-11T18:02:23.049Z,1.72
2019-01-11T18:05:24.984Z,1.72
2019-01-11T18:08:26.985Z,1.73
2019-01-11T18:11:28.945Z,1.78
2019-01-11T18:14:30.957Z,1.78
2019-01-11T18:17:32.876Z,1.78
2019-01-11T18:20:36.744Z,1.79
2019-01-11T18:23:39.032Z,1.82
2019-01-11T18:26:41.105Z,1.83
2019-01-11T18:29:43.313Z,1.85
2019-01-11T18:32:48.014Z,1.88
2019-01-11T18:35:49.920Z,1.85
2019-01-11T18:38:51.912Z,1.94
2019-01-11T18:41:53.876Z,1.92
2019-01-11T18:44:56.917Z,1.96
2019-01-11T18:47:58.833Z,1.99
2019-01-11T18:51:00.854Z,2.06
2019-01-11T18:54:03.131Z,2.08
2019-01-11T18:57:06.075Z,2.12
2019-01-11T19:00:23.076Z,2.10
2019-01-11T19:03:25.100Z,2.09
2019-01-11T19:06:27.135Z,2.12
2019-01-11T19:09:29.684Z,2.07
2019-01-11T19:12:31.609Z,2.14
2019-01-11T19:15:34.797Z,2.25
2019-01-11T19:18:36.719Z,2.30
2019-01-11T19:21:39.641Z,2.33
2019-01-11T19:24:44.084Z,2.34
2019-01-11T19:27:46.584Z,2.27
2019-01-11T19:30:48.954Z,2.34
2019-01-11T19:33:50.965Z,2.36
2019-01-11T19:36:54.429Z,2.31
2019-01-11T19:39:56.810Z,2.35
2019-01-11T19:42:59.048Z,2.34
2019-01-11T19:46:01.490Z,2.41
2019-01-11T19:49:03.672Z,2.39
2019-01-11T19:52:07.059Z,2.43
2019-01-11T19:55:10.622Z,2.42
2019-01-11T19:58:15.020Z,2.39
2019-01-11T20:01:17.376Z,2.39
2019-01-11T20:04:21.285Z,2.42
2019-01-11T20:07:25.044Z,2.42
2019-01-11T20:10:30.864Z,2.48
2019-01-11T20:13:33.140Z,2.48
2019-01-11T20:16:35.797Z,2.48
2019-01-11T20:19:38.697Z,2.53
2019-01-11T20:22:45.325Z,2.52
2019-01-11T20:25:47.740Z,2.61
2019-01-11T20:28:49.887Z,2.65
2019-01-11T20:31:52.271Z,2.74
2019-01-11T20:34:56.086Z,2.75
2019-01-11T20:37:58.012Z,2.76
2019-01-11T20:41:00.053Z,2.86
2019-01-11T20:44:01.942Z,2.86
2019-01-11T20:47:05.116Z,2.88
2019-01-11T20:50:10.066Z,2.90
2019-01-11T20:53:11.982Z,2.96
2019-01-11T20:56:13.917Z,3.01
2019-01-11T20:59:16.252Z,3.04
2019-01-11T21:02:18.239Z,3.10
2019-01-11T21:05:20.773Z,3.22
2019-01-11T21:08:25.883Z,3.21
2019-01-11T21:11:29.656Z,3.25
2019-01-11T21:14:31.568Z,3.20
2019-01-11T21:17:37.605Z,3.26
2019-01-11T21:20:39.872Z,3.30
2019-01-11T21:23:48.690Z,3.28
2019-01-11T21:26:48.473Z,3.34
2019-01-11T21:29:51.923Z,3.33
2019-01-11T21:32:54.708Z,3.42
2019-01-11T21:35:58.483Z,3.44
2019-01-11T21:39:00.701Z,3.46
2019-01-11T21:42:02.750Z,3.48
2019-01-11T21:45:08.792Z,3.53
2019-01-11T21:48:10.917Z,3.56
2019-01-11T21:51:12.877Z,3.54
2019-01-11T21:54:14.917Z,3.59
2019-01-11T21:57:16.964Z,3.58
2019-01-11T22:00:25.359Z,3.57
2019-01-11T22:03:27.318Z,3.57
2019-01-11T22:06:29.291Z,3.53
2019-01-11T22:09:31.190Z,3.59
2019-01-11T22:12:33.113Z,3.63
2019-01-11T22:15:35.071Z,3.64
2019-01-11T22:18:37.278Z,3.66
2019-01-11T22:21:39.199Z,3.70
2019-01-11T22:24:41.479Z,3.77
2019-01-11T22:27:43.737Z,3.84
2019-01-11T22:30:46.106Z,3.89
2019-01-11T22:33:48.240Z,3.94
2019-01-11T22:36:50.344Z,3.98
2019-01-11T22:39:52.897Z,3.97
2019-01-11T22:42:56.182Z,3.94
2019-01-11T22:45:58.108Z,3.98
2019-01-11T22:49:00.070Z,3.98
2019-01-11T22:52:02.074Z,4.01
2019-01-11T22:55:06.125Z,4.05
2019-01-11T22:58:08.979Z,4.14
2019-01-11T23:01:17.800Z,4.12
2019-01-11T23:04:21.309Z,4.08
2019-01-11T23:07:26.631Z,4.03
2019-01-11T23:10:38.879Z,4.02
2019-01-11T23:13:40.878Z,4.01
2019-01-11T23:16:42.936Z,4.07
2019-01-11T23:19:45.054Z,4.06
2019-01-11T23:22:47.013Z,4.11
2019-01-11T23:25:49.101Z,4.17
2019-01-11T23:28:51.143Z,4.22
2019-01-11T23:31:53.163Z,4.24
2019-01-11T23:34:55.536Z,4.27
2019-01-11T23:37:58.744Z,4.21
2019-01-11T23:41:00.651Z,4.19
2019-01-11T23:44:02.760Z,4.15
2019-01-11T23:47:04.809Z,4.09
2019-01-11T23:50:09.871Z,4.08
2019-01-11T23:53:11.790Z,4.10
2019-01-11T23:56:13.792Z,4.11
2019-01-11T23:59:15.746Z,4.09
